»·PEaware :: N334PL KSNA-KBUR

N334PL :: KSNA-KBUR

FLIGHT INFORMATION

Flight Status: Arrived
Operator: Privately registered:
United States
More flights under this callsign
Pilot: Anonymous 31783 (31783)
Aircraft: BEECH AIRCRAFT BONANZA
(BE36)
More flights by this aircraft type
Origin: KSNA John Wayne-Orange Co
United States
Destination: KBUR Bob Hope-Burbank
United States
More flights between these airports :: More routes between these airports
Route: SLI V23 POPPR SMO125R SMO SMO311R SILEX
File this flight plan on PilotEdge
Remarks:
Altitude:
(Current/Filed)
4,000ft
Speed:
(Current/Filed)
150kts
Departed: 24-Oct-20 05:24 PM
Arrived: 24-Oct-20 05:58 PM
Distance/Time
Traveled:
6774nm/0:34
Distance/Time
To Go:
Arrived

Flight Plot

Page will automatically refresh every two minutes.


Map Options




Map Legend


Flown Route
Filed Route
Departure Airport
Arrival Airport
Navaid (VOR, NDB)
Fix

Horizontal Profiles

Position Reports

Time Latitude Longitude Heading Altitude Ground
Speed
24-Oct-20 17:12 33.679834 -117.862138 235 43ft 0kts
24-Oct-20 17:13 33.679834 -117.862138 235 43ft 0kts
24-Oct-20 17:14 33.679834 -117.862138 235 43ft 0kts
24-Oct-20 17:15 33.679834 -117.862138 235 43ft 0kts
24-Oct-20 17:16 33.679834 -117.862138 235 43ft 0kts
24-Oct-20 17:17 33.679834 -117.862138 235 43ft 0kts
24-Oct-20 17:18 33.679834 -117.862138 235 43ft 0kts
24-Oct-20 17:19 33.679834 -117.862138 235 43ft 0kts
24-Oct-20 17:20 33.679975 -117.863573 295 44ft 0kts
24-Oct-20 17:21 33.679975 -117.863573 295 44ft 0kts
24-Oct-20 17:22 33.679975 -117.863573 295 44ft 0kts
24-Oct-20 17:23 33.679975 -117.863574 295 44ft 0kts
24-Oct-20 17:24 33.677440 -117.865877 207 52ft 65kts
24-Oct-20 17:25 33.659362 -117.887727 232 527ft 103kts
24-Oct-20 17:26 33.641274 -117.915534 232 1025ft 106kts
24-Oct-20 17:27 33.622342 -117.944507 232 1625ft 118kts
24-Oct-20 17:28 33.602362 -117.975054 232 2591ft 111kts
24-Oct-20 17:29 33.583478 -118.003847 232 3421ft 108kts
24-Oct-20 17:29 33.583060 -118.026818 322 3965ft 110kts
24-Oct-20 17:31 33.616458 -118.056859 322 3995ft 137kts
24-Oct-20 17:31 33.642141 -118.079879 322 3998ft 139kts
24-Oct-20 17:33 33.679309 -118.110756 331 3999ft 139kts
24-Oct-20 17:33 33.708058 -118.128731 331 3999ft 139kts
24-Oct-20 17:35 33.743459 -118.162515 319 3999ft 139kts
24-Oct-20 17:35 33.768375 -118.187385 324 3998ft 139kts
24-Oct-20 17:36 33.801982 -118.210620 329 3999ft 140kts
24-Oct-20 17:37 33.834521 -118.235921 318 4000ft 139kts
24-Oct-20 17:38 33.862947 -118.267622 310 3999ft 139kts
24-Oct-20 17:39 33.887676 -118.303293 306 3999ft 139kts
24-Oct-20 17:40 33.908974 -118.341532 276 4004ft 138kts
24-Oct-20 17:41 33.931899 -118.377909 317 3999ft 139kts
24-Oct-20 17:42 33.961643 -118.407874 319 3999ft 139kts
24-Oct-20 17:43 33.991065 -118.438407 311 3999ft 139kts
24-Oct-20 17:44 34.024752 -118.459750 343 3999ft 140kts
24-Oct-20 17:45 34.062139 -118.472928 343 3999ft 140kts
24-Oct-20 17:46 34.090282 -118.504118 312 4001ft 139kts
24-Oct-20 17:47 34.115132 -118.539582 293 4002ft 139kts
24-Oct-20 17:48 34.130107 -118.582764 292 4000ft 139kts
24-Oct-20 17:49 34.145091 -118.625885 292 3999ft 139kts
24-Oct-20 17:50 34.171404 -118.645788 22 4001ft 140kts
24-Oct-20 17:51 34.204507 -118.621275 43 3998ft 142kts
24-Oct-20 17:52 34.200368 -118.581246 90 3975ft 143kts
24-Oct-20 17:53 34.200024 -118.530993 90 3702ft 148kts
24-Oct-20 17:54 34.199331 -118.478213 91 2541ft 151kts
24-Oct-20 17:55 34.198699 -118.429478 91 1693ft 141kts
24-Oct-20 17:56 34.198083 -118.382315 91 993ft 133kts
24-Oct-20 17:57 34.197132 -118.357937 178 713ft 2kts
24-Oct-20 17:58 34.196217 -118.358768 226 712ft 0kts
24-Oct-20 17:59 0.000408 0.013975 359 3ft 0kts
24-Oct-20 18:00 0.000408 0.013975 359 3ft 0kts
24-Oct-20 18:01 0.000408 0.013975 359 3ft 0kts
24-Oct-20 18:02 0.000408 0.013975 359 3ft 0kts
24-Oct-20 18:03 0.000408 0.013975 359 3ft 0kts
24-Oct-20 18:04 0.000408 0.013975 359 3ft 0kts
24-Oct-20 18:05 0.000408 0.013975 359 3ft 0kts
24-Oct-20 18:06 0.000408 0.013975 359 3ft 0kts
24-Oct-20 18:07 0.000408 0.013975 359 3ft 0kts
24-Oct-20 18:08 0.000408 0.013975 359 3ft 0kts
24-Oct-20 18:09 0.000408 0.013975 359 3ft 0kts
24-Oct-20 18:10 0.000408 0.013975 359 3ft 0kts
24-Oct-20 18:11 0.000408 0.013975 359 3ft 0kts
24-Oct-20 18:12 0.000408 0.013975 359 3ft 0kts

Navigation Log

Ident Type
Flight plan parsing failed, navigation log unavailable